Time;durP1;ratioP1;P1;durP2;ratioP2;P2;SDS_P1;SDS_P2;PMS_P1;PMS_P2;Temp;Humidity;BMP_temperature;BMP_pressure;BME280_temperature;BME280_humidity;BME280_pressure;Samples;Min_cycle;Max_cycle;Signal;HPM_P1;HPM_P2
2021/08/15 00:00:03;;;;;;;41.40;35.83;;;;;;;19.11;100.00;99135.69;2097159;28;20449;-77
2021/08/15 00:01:13;;;;;;;39.30;35.20;;;;;;;19.15;100.00;99136.59;2096730;28;20232;-77
2021/08/15 00:02:14;;;;;;;39.77;35.60;;;;;;;19.17;100.00;99135.09;2096334;28;20456;-77
2021/08/15 00:03:17;;;;;;;40.80;36.57;;;;;;;19.15;100.00;99140.06;2096541;28;20448;-78
2021/08/15 00:04:18;;;;;;;40.73;36.40;;;;;;;19.18;100.00;99135.88;2096959;28;20222;-77
2021/08/15 00:05:19;;;;;;;44.07;37.67;;;;;;;19.14;100.00;99135.03;2097137;28;20453;-77
2021/08/15 00:06:20;;;;;;;42.33;36.17;;;;;;;19.14;100.00;99135.81;2096412;28;20234;-77
2021/08/15 00:07:22;;;;;;;43.37;36.93;;;;;;;19.13;100.00;99126.13;2096248;28;20503;-77
2021/08/15 00:08:23;;;;;;;40.20;36.33;;;;;;;19.11;100.00;99133.81;2093866;28;20222;-78
2021/08/15 00:09:24;;;;;;;42.40;37.87;;;;;;;19.11;100.00;99141.09;2096198;28;20551;-78
2021/08/15 00:10:26;;;;;;;41.60;37.10;;;;;;;19.13;100.00;99133.44;2095954;28;20611;-77
2021/08/15 00:11:27;;;;;;;41.53;37.10;;;;;;;19.17;100.00;99140.50;2097264;28;20464;-77
2021/08/15 00:12:28;;;;;;;41.33;36.90;;;;;;;19.22;100.00;99133.28;2096066;28;20516;-77
2021/08/15 00:13:30;;;;;;;41.37;36.63;;;;;;;19.26;100.00;99136.81;2096533;28;20683;-77
2021/08/15 00:14:31;;;;;;;40.67;36.53;;;;;;;19.31;100.00;99139.28;2096485;28;20456;-77
2021/08/15 00:15:32;;;;;;;42.00;36.20;;;;;;;19.26;100.00;99134.13;2087976;28;20490;-77
2021/08/15 00:16:33;;;;;;;41.93;37.10;;;;;;;19.20;100.00;99131.69;2088138;28;20237;-76
2021/08/15 00:17:34;;;;;;;40.00;35.90;;;;;;;19.16;100.00;99132.75;2096366;28;20440;-77
2021/08/15 00:18:37;;;;;;;42.40;36.00;;;;;;;19.11;100.00;99131.09;2096861;28;20218;-77
2021/08/15 00:19:38;;;;;;;43.80;38.40;;;;;;;19.12;100.00;99135.38;2096640;28;20990;-78
2021/08/15 00:20:40;;;;;;;41.27;36.83;;;;;;;19.10;100.00;99129.50;2096132;28;20957;-77
2021/08/15 00:21:41;;;;;;;42.30;37.87;;;;;;;19.11;100.00;99130.28;2096294;28;20444;-77
2021/08/15 00:22:44;;;;;;;40.30;36.03;;;;;;;19.11;100.00;99131.09;2096118;28;20468;-77
2021/08/15 00:23:44;;;;;;;40.37;36.07;;;;;;;19.10;100.00;99120.63;2096324;28;20229;-77
2021/08/15 00:24:46;;;;;;;39.70;35.60;;;;;;;19.10;100.00;99128.72;2096244;28;20459;-77
2021/08/15 00:25:47;;;;;;;42.27;36.73;;;;;;;19.09;100.00;99127.94;2096187;28;20226;-77
2021/08/15 00:26:49;;;;;;;45.03;37.83;;;;;;;19.10;100.00;99118.69;2096186;28;20472;-77
2021/08/15 00:27:49;;;;;;;41.77;37.30;;;;;;;19.11;100.00;99119.47;2095929;28;20229;-77
2021/08/15 00:28:51;;;;;;;47.00;39.30;;;;;;;19.13;100.00;99122.63;2096154;28;20543;-77
2021/08/15 00:29:52;;;;;;;42.50;37.90;;;;;;;19.13;100.00;99128.81;2096295;28;20334;-78
2021/08/15 00:30:53;;;;;;;48.07;39.13;;;;;;;19.12;100.00;99121.84;2096118;28;20464;-78
2021/08/15 00:31:54;;;;;;;42.00;37.53;;;;;;;19.13;100.00;99115.31;2096835;28;20233;-77
2021/08/15 00:32:56;;;;;;;43.30;38.67;;;;;;;19.15;100.00;99121.13;2097184;28;20548;-78
2021/08/15 00:34:00;;;;;;;43.73;38.63;;;;;;;19.15;100.00;99125.75;2096718;28;20241;-78
2021/08/15 00:35:02;;;;;;;43.43;37.67;;;;;;;19.12;100.00;99124.56;2097122;28;20440;-77
2021/08/15 00:36:03;;;;;;;41.40;37.10;;;;;;;19.18;100.00;99120.44;2095973;28;20525;-77
2021/08/15 00:37:05;;;;;;;47.33;38.90;;;;;;;19.17;100.00;99129.69;2096228;28;20448;-77
2021/08/15 00:38:06;;;;;;;41.83;37.47;;;;;;;19.23;100.00;99121.31;2096594;28;20225;-78
2021/08/15 00:39:07;;;;;;;41.83;36.93;;;;;;;19.24;100.00;99128.28;2095829;28;20460;-77
2021/08/15 00:40:09;;;;;;;40.30;35.90;;;;;;;19.24;100.00;99125.59;2095990;28;20690;-77
2021/08/15 00:41:11;;;;;;;39.53;35.53;;;;;;;19.27;100.00;99116.75;2096028;28;20475;-77
2021/08/15 00:42:12;;;;;;;41.23;36.80;;;;;;;19.28;100.00;99118.31;2096693;28;20459;-77
2021/08/15 00:43:13;;;;;;;39.17;35.20;;;;;;;19.31;100.00;99120.34;2096235;28;20498;-77
2021/08/15 00:44:15;;;;;;;39.13;35.13;;;;;;;19.30;100.00;99121.47;2095979;28;20449;-78
2021/08/15 00:45:16;;;;;;;40.67;36.17;;;;;;;19.27;100.00;99117.53;2096287;28;20213;-77
2021/08/15 00:46:17;;;;;;;41.13;36.80;;;;;;;19.23;100.00;99115.91;2096823;28;20445;-77
2021/08/15 00:47:19;;;;;;;44.83;38.53;;;;;;;19.17;100.00;99123.50;2096728;28;21022;-77
2021/08/15 00:48:20;;;;;;;42.13;37.67;;;;;;;19.15;100.00;99123.06;2091885;28;20986;-77
2021/08/15 00:49:22;;;;;;;43.77;37.53;;;;;;;19.15;100.00;99114.94;2087389;28;20809;-77
2021/08/15 00:50:23;;;;;;;41.90;37.10;;;;;;;19.11;100.00;99123.00;2095591;28;20237;-77
2021/08/15 00:51:25;;;;;;;38.40;34.50;;;;;;;19.08;100.00;99120.19;2096403;28;20539;-77
2021/08/15 00:52:25;;;;;;;41.03;36.43;;;;;;;19.03;100.00;99123.19;2088001;28;20731;-77
2021/08/15 00:53:27;;;;;;;41.60;37.30;;;;;;;18.97;100.00;99122.66;2085065;28;21386;-77
2021/08/15 00:54:28;;;;;;;42.53;38.00;;;;;;;18.96;100.00;99126.50;2087907;28;20219;-76
2021/08/15 00:55:30;;;;;;;44.90;36.23;;;;;;;18.90;100.00;99120.53;2087498;28;20451;-76
2021/08/15 00:56:31;;;;;;;41.27;36.87;;;;;;;18.87;100.00;99123.97;2087761;28;20757;-77
2021/08/15 00:57:35;;;;;;;44.87;38.10;;;;;;;18.87;100.00;99129.38;2088481;28;20442;-76
2021/08/15 00:58:36;;;;;;;38.73;34.63;;;;;;;18.96;100.00;99129.19;2088036;28;20477;-77
2021/08/15 00:59:39;;;;;;;41.63;37.23;;;;;;;18.90;100.00;99122.47;2095602;28;20456;-77
2021/08/15 01:00:39;;;;;;;39.53;35.43;;;;;;;19.00;100.00;99121.94;2096677;28;20910;-77
2021/08/15 01:01:41;;;;;;;38.43;34.43;;;;;;;18.98;100.00;99126.13;2095358;28;20460;-77
2021/08/15 01:02:42;;;;;;;37.17;33.27;;;;;;;18.97;100.00;99119.16;2095863;28;20582;-77
2021/08/15 01:03:44;;;;;;;38.93;34.73;;;;;;;18.93;100.00;99119.06;2096492;28;20433;-77
2021/08/15 01:04:46;;;;;;;41.57;36.53;;;;;;;18.89;100.00;99123.59;2096797;28;20440;-77
2021/08/15 01:05:48;;;;;;;42.00;35.93;;;;;;;18.95;100.00;99127.63;2095963;28;20966;-76
2021/08/15 01:06:50;;;;;;;41.97;37.37;;;;;;;18.93;100.00;99119.06;2087666;28;20859;-77
2021/08/15 01:07:50;;;;;;;42.93;37.37;;;;;;;18.96;100.00;99123.00;2087680;28;20454;-76
2021/08/15 01:08:52;;;;;;;42.40;37.90;;;;;;;19.00;100.00;99119.22;2088292;28;21010;-77
2021/08/15 01:09:52;;;;;;;40.13;35.30;;;;;;;18.98;100.00;99126.91;2097346;28;20731;-78
2021/08/15 01:10:54;;;;;;;41.53;37.17;;;;;;;18.89;100.00;99124.38;2098358;28;20475;-77
2021/08/15 01:11:55;;;;;;;40.37;36.00;;;;;;;18.84;100.00;99115.75;2098423;28;20230;-77
2021/08/15 01:12:57;;;;;;;41.73;36.80;;;;;;;18.78;100.00;99119.88;2098518;28;20974;-77
2021/08/15 01:13:57;;;;;;;41.90;37.37;;;;;;;18.74;100.00;99121.69;2098248;28;20258;-77
2021/08/15 01:14:59;;;;;;;44.73;37.83;;;;;;;18.73;100.00;99114.72;2097665;28;20499;-77
2021/08/15 01:16:01;;;;;;;44.30;38.27;;;;;;;18.70;100.00;99121.59;2097976;28;20222;-77
2021/08/15 01:17:03;;;;;;;44.73;39.37;;;;;;;18.68;100.00;99123.88;2097592;28;20491;-77
2021/08/15 01:18:17;;;;;;;46.10;39.23;;;;;;;18.66;100.00;99122.63;2089341;28;20448;-77
2021/08/15 01:19:19;;;;;;;44.93;40.03;;;;;;;18.64;100.00;99126.44;2090893;28;20478;-77
2021/08/15 01:20:21;;;;;;;46.23;39.77;;;;;;;18.63;100.00;99126.78;2097703;28;20467;-77
2021/08/15 01:21:22;;;;;;;44.63;37.97;;;;;;;18.60;100.00;99128.28;2097899;28;20480;-78
2021/08/15 01:22:24;;;;;;;45.87;40.57;;;;;;;18.56;100.00;99130.09;2098470;28;20480;-77
2021/08/15 01:23:26;;;;;;;43.23;38.60;;;;;;;18.57;100.00;99136.28;2098183;28;20448;-77
2021/08/15 01:24:27;;;;;;;45.93;40.57;;;;;;;18.56;100.00;99130.09;2097292;28;20823;-77
2021/08/15 01:25:29;;;;;;;47.40;40.30;;;;;;;18.54;100.00;99128.88;2097691;28;20536;-77
2021/08/15 01:26:30;;;;;;;47.37;38.63;;;;;;;18.59;100.00;99126.72;2097785;28;20226;-77
2021/08/15 01:27:36;;;;;;;45.57;40.77;;;;;;;18.56;100.00;99127.38;2097613;28;20942;-77
2021/08/15 01:28:40;;;;;;;46.37;40.30;;;;;;;18.52;100.00;99125.75;2097119;28;20986;-78
2021/08/15 01:29:44;;;;;;;43.43;38.93;;;;;;;18.52;100.00;99129.22;2082618;28;20447;-77
2021/08/15 01:30:46;;;;;;;39.87;35.97;;;;;;;18.58;100.00;99125.13;2081438;28;20504;-77
2021/08/15 01:31:47;;;;;;;41.70;36.90;;;;;;;18.57;100.00;99131.66;2094862;28;20444;-77
2021/08/15 01:32:49;;;;;;;46.33;39.43;;;;;;;18.52;100.00;99126.53;2098426;28;20460;-77
2021/08/15 01:33:50;;;;;;;39.77;35.57;;;;;;;18.58;100.00;99130.53;2097358;28;20309;-77
2021/08/15 01:34:51;;;;;;;46.43;41.20;;;;;;;18.55;100.00;99131.22;2089121;28;20450;-77
2021/08/15 01:35:53;;;;;;;43.13;37.83;;;;;;;18.53;100.00;99132.72;2097218;28;20226;-78
2021/08/15 01:36:54;;;;;;;45.73;39.10;;;;;;;18.51;100.00;99129.59;2098158;28;20514;-78
2021/08/15 01:37:55;;;;;;;56.40;47.40;;;;;;;18.46;100.00;99124.41;2097633;28;20552;-77
2021/08/15 01:38:56;;;;;;;58.93;49.03;;;;;;;18.44;100.00;99124.78;2097239;28;20441;-77
2021/08/15 01:40:01;;;;;;;52.50;41.87;;;;;;;18.52;100.00;99129.22;2098142;28;20226;-76
2021/08/15 01:41:04;;;;;;;43.67;37.53;;;;;;;18.48;100.00;99125.63;2097297;28;20499;-76
2021/08/15 01:42:06;;;;;;;39.70;35.50;;;;;;;18.52;100.00;99126.53;2097351;28;20506;-76
2021/08/15 01:43:07;;;;;;;40.43;36.03;;;;;;;18.44;100.00;99124.78;2094984;28;20513;-78
2021/08/15 01:44:09;;;;;;;55.00;46.17;;;;;;;18.43;100.00;99125.13;2097245;28;20752;-76
2021/08/15 01:45:12;;;;;;;52.33;42.87;;;;;;;18.38;100.00;99128.84;2097444;28;20497;-77
2021/08/15 01:46:13;;;;;;;48.87;40.83;;;;;;;18.34;100.00;99122.59;2098188;28;20444;-77
2021/08/15 01:47:14;;;;;;;52.63;42.30;;;;;;;18.32;100.00;99127.53;2097080;28;20448;-76
2021/08/15 01:48:15;;;;;;;52.20;43.93;;;;;;;18.30;100.00;99130.56;2089004;28;20233;-76
2021/08/15 01:49:17;;;;;;;56.23;45.20;;;;;;;18.28;100.00;99121.25;2097318;28;20494;-76
2021/08/15 01:50:17;;;;;;;52.63;43.23;;;;;;;18.38;100.00;99130.75;2098040;28;20309;-76
2021/08/15 01:51:20;;;;;;;53.53;46.10;;;;;;;18.37;100.00;99129.97;2097266;28;20457;-76
2021/08/15 01:52:21;;;;;;;42.40;37.77;;;;;;;18.37;100.00;99124.59;2097455;28;20269;-76
2021/08/15 01:53:23;;;;;;;48.17;42.93;;;;;;;18.33;100.00;99129.09;2096942;28;20453;-78
2021/08/15 01:54:24;;;;;;;56.17;46.23;;;;;;;18.31;100.00;99131.34;2088940;28;20445;-77
2021/08/15 01:55:25;;;;;;;44.77;39.43;;;;;;;18.28;100.00;99126.66;2097421;28;20531;-77
2021/08/15 01:56:26;;;;;;;59.20;46.00;;;;;;;18.26;100.00;99118.13;2097242;28;20226;-77
2021/08/15 01:57:28;;;;;;;59.27;46.97;;;;;;;18.26;100.00;99124.31;2097194;28;20510;-77
2021/08/15 01:58:29;;;;;;;62.70;50.23;;;;;;;18.25;100.00;99127.34;2097950;28;20459;-77
2021/08/15 01:59:32;;;;;;;52.00;40.57;;;;;;;18.23;100.00;99124.19;2097272;28;20440;-77
2021/08/15 02:00:33;;;;;;;52.90;43.93;;;;;;;18.29;100.00;99123.59;2097386;28;20737;-77
2021/08/15 02:01:34;;;;;;;58.00;45.70;;;;;;;18.29;100.00;99123.59;2097466;28;20833;-76
2021/08/15 02:02:37;;;;;;;51.90;45.50;;;;;;;18.30;100.00;99129.78;2097339;28;21001;-77
2021/08/15 02:03:38;;;;;;;61.17;48.63;;;;;;;18.30;100.00;99121.69;2097409;28;20460;-78
2021/08/15 02:04:39;;;;;;;58.80;47.93;;;;;;;18.30;100.00;99118.97;2097025;28;20457;-77
2021/08/15 02:05:42;;;;;;;50.20;41.73;;;;;;;18.31;100.00;99131.34;2088781;28;20457;-77
2021/08/15 02:06:43;;;;;;;53.50;42.23;;;;;;;18.36;100.00;99129.19;2097182;28;20222;-77
2021/08/15 02:07:45;;;;;;;45.60;40.67;;;;;;;18.45;100.00;99120.94;2097926;28;20444;-77
2021/08/15 02:08:46;;;;;;;48.17;39.57;;;;;;;18.51;100.00;99122.25;2097981;28;20245;-77
2021/08/15 02:09:48;;;;;;;42.57;37.90;;;;;;;18.69;100.00;99124.66;2098232;28;20444;-76
2021/08/15 02:10:50;;;;;;;42.60;37.73;;;;;;;18.75;100.00;99120.53;2097049;28;20480;-77
2021/08/15 02:11:51;;;;;;;48.13;38.93;;;;;;;18.75;100.00;99125.94;2080803;28;20514;-76
2021/08/15 02:12:53;;;;;;;43.87;39.17;;;;;;;18.70;100.00;99126.22;2097053;28;20931;-79
2021/08/15 02:13:53;;;;;;;46.13;39.00;;;;;;;18.77;100.00;99118.31;2097139;28;20314;-77
2021/08/15 02:14:56;;;;;;;51.37;40.83;;;;;;;18.75;100.00;99117.84;2105893;28;20452;-77
2021/08/15 02:15:58;;;;;;;46.87;40.07;;;;;;;18.73;100.00;99123.59;2097143;28;20253;-77
2021/08/15 02:16:59;;;;;;;44.33;39.67;;;;;;;18.71;100.00;99116.97;2088875;28;20997;-77
2021/08/15 02:18:01;;;;;;;50.03;41.53;;;;;;;18.71;100.00;99114.28;2081724;28;20809;-76
2021/08/15 02:19:01;;;;;;;51.07;42.47;;;;;;;18.66;100.00;99109.91;2096442;28;20246;-76
2021/08/15 02:20:06;;;;;;;54.30;45.13;;;;;;;18.60;100.00;99109.38;2097208;28;20461;-76
2021/08/15 02:21:06;;;;;;;56.20;44.93;;;;;;;18.57;100.00;99104.63;2097296;28;20234;-77
2021/08/15 02:22:08;;;;;;;66.87;44.93;;;;;;;18.53;100.00;99109.19;2097525;28;20452;-77
2021/08/15 02:23:10;;;;;;;55.03;44.90;;;;;;;18.53;100.00;99108.41;2098062;28;20548;-77
2021/08/15 02:24:10;;;;;;;52.77;44.70;;;;;;;18.50;100.00;99107.16;2097231;28;20488;-77
2021/08/15 02:25:13;;;;;;;53.97;45.20;;;;;;;18.47;100.00;99107.84;2097130;28;20455;-76
2021/08/15 02:26:14;;;;;;;56.33;45.80;;;;;;;18.45;100.00;99110.13;2097165;28;20249;-77
2021/08/15 02:27:15;;;;;;;53.90;45.37;;;;;;;18.45;100.00;99112.81;2097749;28;20540;-77
2021/08/15 02:28:17;;;;;;;58.43;44.57;;;;;;;18.43;100.00;99106.22;2097003;28;20506;-77
2021/08/15 02:29:17;;;;;;;53.30;45.03;;;;;;;18.40;100.00;99106.88;2081474;28;20257;-77
2021/08/15 02:30:22;;;;;;;53.90;44.60;;;;;;;18.39;100.00;99106.09;2096601;28;20543;-76
2021/08/15 02:31:23;;;;;;;58.27;45.67;;;;;;;18.38;100.00;99115.34;2086832;28;20226;-78
2021/08/15 02:32:24;;;;;;;56.53;45.23;;;;;;;18.38;100.00;99103.75;2097033;28;20456;-77
2021/08/15 02:33:26;;;;;;;48.93;43.63;;;;;;;18.35;100.00;99105.25;2097782;28;20225;-77
2021/08/15 02:34:28;;;;;;;56.43;45.57;;;;;;;18.34;100.00;99115.25;2097002;28;20448;-77
2021/08/15 02:35:31;;;;;;;55.67;44.93;;;;;;;18.33;100.00;99108.28;2097020;28;20459;-77
2021/08/15 02:36:32;;;;;;;55.90;43.93;;;;;;;18.33;100.00;99111.00;2097735;28;20452;-76
2021/08/15 02:37:34;;;;;;;49.37;43.17;;;;;;;18.35;100.00;99111.41;2096979;28;20475;-76
2021/08/15 02:38:35;;;;;;;50.90;42.47;;;;;;;18.34;100.00;99111.78;2089042;28;20253;-77
2021/08/15 02:39:36;;;;;;;49.63;44.30;;;;;;;18.33;100.00;99115.56;2088539;28;20449;-77
2021/08/15 02:40:38;;;;;;;53.40;44.57;;;;;;;18.32;100.00;99111.31;2096614;28;20528;-78
2021/08/15 02:41:39;;;;;;;48.73;43.37;;;;;;;18.31;100.00;99110.53;2097284;28;20226;-77
2021/08/15 02:42:43;;;;;;;53.50;43.20;;;;;;;18.29;100.00;99106.63;2081988;28;20454;-77
2021/08/15 02:43:43;;;;;;;50.57;44.40;;;;;;;18.30;100.00;99108.19;2096051;28;20214;-77
2021/08/15 02:44:45;;;;;;;48.90;42.70;;;;;;;18.27;100.00;99104.25;2088573;28;20488;-77
2021/08/15 02:45:48;;;;;;;54.67;42.80;;;;;;;18.30;100.00;99106.25;2096065;28;20222;-77
2021/08/15 02:46:49;;;;;;;46.07;41.13;;;;;;;18.30;100.00;99103.56;2097094;28;20464;-81
2021/08/15 02:47:51;;;;;;;46.37;40.53;;;;;;;18.34;100.00;99103.66;2097665;28;20451;-81
2021/08/15 02:48:51;;;;;;;46.83;41.70;;;;;;;18.35;100.00;99102.53;2097509;28;20299;-80
2021/08/15 02:49:53;;;;;;;53.63;42.83;;;;;;;18.30;100.00;99098.16;2088088;28;20508;-80
2021/08/15 02:50:55;;;;;;;45.50;40.57;;;;;;;18.34;100.00;99100.97;2088499;28;20226;-81
2021/08/15 02:51:55;;;;;;;49.77;39.93;;;;;;;18.41;100.00;99101.13;2082302;28;20461;-81
2021/08/15 02:52:57;;;;;;;51.57;40.37;;;;;;;18.43;100.00;99096.19;2080326;28;20537;-81
2021/08/15 02:53:58;;;;;;;48.60;40.97;;;;;;;18.41;100.00;99100.34;2095829;28;20268;-81
2021/08/15 02:55:01;;;;;;;50.83;40.90;;;;;;;18.47;100.00;99097.06;2097293;28;20445;-81
2021/08/15 02:56:02;;;;;;;48.73;40.90;;;;;;;18.51;100.00;99097.94;2096859;28;20500;-81
2021/08/15 02:57:03;;;;;;;45.30;40.50;;;;;;;18.54;100.00;99091.03;2098189;28;20451;-81
2021/08/15 02:58:05;;;;;;;42.83;37.80;;;;;;;18.47;100.00;99091.66;2096875;28;20451;-81
2021/08/15 02:59:06;;;;;;;47.47;39.90;;;;;;;18.48;100.00;99089.72;2088490;28;20490;-81
2021/08/15 03:00:09;;;;;;;44.33;39.57;;;;;;;18.48;100.00;99093.22;2097478;28;20445;-81
2021/08/15 03:01:11;;;;;;;47.93;39.50;;;;;;;18.45;100.00;99085.81;2094532;28;20657;-80
2021/08/15 03:02:14;;;;;;;47.03;40.00;;;;;;;18.49;100.00;99086.66;2097461;28;20477;-81
2021/08/15 03:03:15;;;;;;;43.33;38.80;;;;;;;18.44;100.00;99086.16;2096629;28;20464;-81
2021/08/15 03:04:16;;;;;;;46.73;41.40;;;;;;;18.41;100.00;99092.25;2096808;28;20441;-81
2021/08/15 03:05:19;;;;;;;45.97;37.90;;;;;;;18.38;100.00;99088.31;2097260;28;20306;-77
2021/08/15 03:06:21;;;;;;;41.97;37.53;;;;;;;18.34;100.00;99084.75;2096904;28;20440;-77
2021/08/15 03:07:22;;;;;;;45.30;38.73;;;;;;;18.35;100.00;99087.13;2097174;28;20465;-78
2021/08/15 03:08:24;;;;;;;43.73;38.57;;;;;;;18.41;100.00;99087.63;2096589;28;20449;-77
2021/08/15 03:09:25;;;;;;;47.13;39.30;;;;;;;18.38;100.00;99087.53;2088354;28;20469;-77
2021/08/15 03:10:26;;;;;;;48.87;39.73;;;;;;;18.33;100.00;99085.88;2088623;28;20465;-77
2021/08/15 03:11:27;;;;;;;44.43;39.30;;;;;;;18.28;100.00;99084.22;2096643;28;20237;-77
2021/08/15 03:12:29;;;;;;;47.13;38.57;;;;;;;18.27;100.00;99088.06;2096677;28;20455;-77
2021/08/15 03:13:29;;;;;;;44.67;39.83;;;;;;;18.22;100.00;99084.81;2096854;28;20700;-77
2021/08/15 03:14:31;;;;;;;46.00;40.00;;;;;;;18.19;100.00;99085.50;2096634;28;20810;-77
2021/08/15 03:15:33;;;;;;;44.30;39.10;;;;;;;18.20;100.00;99087.88;2088842;28;20229;-77
2021/08/15 03:16:35;;;;;;;44.53;38.50;;;;;;;18.21;100.00;99086.72;2096691;28;20444;-76
2021/08/15 03:17:36;;;;;;;43.00;38.50;;;;;;;18.23;100.00;99086.38;2097432;28;20451;-76
2021/08/15 03:18:38;;;;;;;46.20;38.50;;;;;;;18.22;100.00;99084.81;2097356;28;20985;-78
2021/08/15 03:19:40;;;;;;;44.23;39.17;;;;;;;18.23;100.00;99084.47;2097394;28;20448;-76
2021/08/15 03:20:42;;;;;;;42.83;38.27;;;;;;;18.20;100.00;99081.69;2097628;28;20445;-76
2021/08/15 03:21:42;;;;;;;46.77;39.07;;;;;;;18.12;100.00;99085.31;2096539;28;20496;-77
2021/08/15 03:22:44;;;;;;;45.03;39.77;;;;;;;18.06;100.00;99077.47;2096694;28;20460;-76
2021/08/15 03:23:45;;;;;;;46.80;38.33;;;;;;;18.01;100.00;99080.41;2096751;28;20226;-77
2021/08/15 03:24:46;;;;;;;43.53;38.67;;;;;;;18.07;100.00;99078.28;2096629;28;20544;-77
2021/08/15 03:25:47;;;;;;;46.13;39.30;;;;;;;18.05;100.00;99075.88;2088631;28;20246;-76
2021/08/15 03:26:49;;;;;;;45.10;39.23;;;;;;;18.05;100.00;99080.50;2088501;28;20442;-77
2021/08/15 03:27:51;;;;;;;43.50;38.60;;;;;;;18.14;100.00;99083.06;2096480;28;20253;-76
2021/08/15 03:28:51;;;;;;;41.57;37.13;;;;;;;18.19;100.00;99085.50;2097085;28;20835;-77
2021/08/15 03:29:53;;;;;;;41.80;37.40;;;;;;;18.21;100.00;99083.25;2096699;28;20512;-77
2021/08/15 03:30:54;;;;;;;44.57;38.50;;;;;;;18.15;100.00;99088.09;2096902;28;20249;-77
2021/08/15 03:31:57;;;;;;;42.27;37.87;;;;;;;18.14;100.00;99085.75;2096074;28;20445;-77
2021/08/15 03:32:58;;;;;;;41.93;37.53;;;;;;;18.15;100.00;99081.91;2087662;28;20226;-76
2021/08/15 03:33:59;;;;;;;42.80;37.57;;;;;;;18.14;100.00;99083.06;2096378;28;20475;-77
2021/08/15 03:35:01;;;;;;;44.90;38.30;;;;;;;18.10;100.00;99076.78;2096402;28;20464;-76
2021/08/15 03:36:02;;;;;;;43.77;37.33;;;;;;;18.13;100.00;99082.28;2096574;28;20233;-76
2021/08/15 03:37:04;;;;;;;44.73;39.60;;;;;;;18.06;100.00;99082.84;2096430;28;20437;-77
2021/08/15 03:38:04;;;;;;;47.23;38.70;;;;;;;17.98;100.00;99086.53;2096658;28;20757;-76
2021/08/15 03:39:06;;;;;;;44.33;39.57;;;;;;;17.93;100.00;99084.06;2096265;28;20873;-77
2021/08/15 03:40:08;;;;;;;44.03;39.43;;;;;;;17.97;100.00;99078.75;2087624;28;20721;-77
2021/08/15 03:41:09;;;;;;;48.77;39.97;;;;;;;18.08;100.00;99080.63;2088083;28;20510;-77
2021/08/15 03:42:10;;;;;;;48.80;38.67;;;;;;;18.11;100.00;99083.75;2096499;28;20467;-76
2021/08/15 03:43:12;;;;;;;43.67;38.53;;;;;;;18.04;100.00;99082.41;2096191;28;20453;-77
2021/08/15 03:44:12;;;;;;;47.77;40.57;;;;;;;17.97;100.00;99074.13;2096543;28;20225;-77
2021/08/15 03:45:14;;;;;;;48.20;38.37;;;;;;;18.01;100.00;99085.03;2096308;28;20450;-76
2021/08/15 03:46:15;;;;;;;43.93;38.70;;;;;;;18.10;100.00;99084.88;2088161;28;20312;-76
2021/08/15 03:47:18;;;;;;;52.20;38.93;;;;;;;18.02;100.00;99090.09;2096410;28;20444;-76
2021/08/15 03:48:18;;;;;;;43.37;38.60;;;;;;;17.94;100.00;99082.91;2097064;28;20218;-76
2021/08/15 03:49:20;;;;;;;44.00;39.30;;;;;;;17.87;100.00;99080.03;2097387;28;20432;-76
2021/08/15 03:50:23;;;;;;;46.37;41.13;;;;;;;17.84;100.00;99083.41;2097111;28;20229;-76
2021/08/15 03:51:23;;;;;;;43.83;39.03;;;;;;;17.79;100.00;99075.56;2095835;28;20464;-76
2021/08/15 03:52:25;;;;;;;48.10;40.27;;;;;;;17.80;100.00;99082.50;2081595;28;20529;-76
2021/08/15 03:53:25;;;;;;;42.77;38.23;;;;;;;17.76;100.00;99077.03;2088164;28;20226;-76
2021/08/15 03:54:27;;;;;;;43.97;39.00;;;;;;;17.77;100.00;99081.28;2087904;28;20465;-75
2021/08/15 03:55:28;;;;;;;50.10;40.37;;;;;;;17.79;100.00;99080.94;2093235;28;20230;-76
2021/08/15 03:56:30;;;;;;;44.00;39.20;;;;;;;17.78;100.00;99082.88;2097039;28;20445;-76
2021/08/15 03:57:30;;;;;;;43.27;38.67;;;;;;;17.78;100.00;99076.69;2096276;28;20218;-76
2021/08/15 03:58:32;;;;;;;46.80;40.40;;;;;;;17.78;100.00;99076.69;2087566;28;20503;-76
2021/08/15 03:59:32;;;;;;;44.83;39.83;;;;;;;17.78;100.00;99087.47;2088177;28;20267;-76
2021/08/15 04:00:39;;;;;;;45.27;39.97;;;;;;;17.76;100.00;99085.13;2096383;28;21019;-75
2021/08/15 04:01:40;;;;;;;46.50;40.23;;;;;;;17.76;100.00;99084.34;2095692;28;20702;-75
2021/08/15 04:02:43;;;;;;;45.80;40.70;;;;;;;17.75;100.00;99080.88;2096194;28;20797;-76
2021/08/15 04:03:44;;;;;;;44.00;39.23;;;;;;;17.74;100.00;99081.22;2096360;28;20217;-76
2021/08/15 04:04:45;;;;;;;46.07;40.77;;;;;;;17.77;100.00;99069.72;2097196;28;20449;-76
2021/08/15 04:05:46;;;;;;;44.13;39.33;;;;;;;17.82;100.00;99080.28;2096329;28;20218;-76
2021/08/15 04:06:48;;;;;;;46.13;41.13;;;;;;;17.79;100.00;99080.94;2096298;28;20531;-76
2021/08/15 04:07:48;;;;;;;45.03;39.97;;;;;;;17.79;100.00;99079.03;2096418;28;20229;-76
2021/08/15 04:08:51;;;;;;;47.00;41.40;;;;;;;17.76;100.00;99074.34;2096182;28;20466;-76
2021/08/15 04:09:52;;;;;;;46.80;41.73;;;;;;;17.77;100.00;99080.50;2095555;28;20222;-78
2021/08/15 04:10:54;;;;;;;45.60;40.40;;;;;;;17.83;100.00;99084.56;2096317;28;20452;-76
2021/08/15 04:11:54;;;;;;;44.17;39.47;;;;;;;17.90;100.00;99079.34;2096349;28;20665;-76
2021/08/15 04:12:56;;;;;;;46.07;40.97;;;;;;;17.96;100.00;99080.66;2087065;28;20809;-76
2021/08/15 04:13:56;;;;;;;47.47;40.53;;;;;;;18.02;100.00;99073.88;2088052;28;20320;-76
2021/08/15 04:14:58;;;;;;;46.87;39.50;;;;;;;18.09;100.00;99078.69;2096190;28;20455;-76
2021/08/15 04:15:59;;;;;;;43.37;38.73;;;;;;;18.09;100.00;99078.69;2096401;28;20218;-76
2021/08/15 04:17:00;;;;;;;44.20;38.20;;;;;;;18.09;100.00;99073.31;2096170;28;20510;-76
2021/08/15 04:18:02;;;;;;;46.67;38.93;;;;;;;18.04;100.00;99074.31;2087936;28;20305;-76
2021/08/15 04:19:04;;;;;;;51.73;39.80;;;;;;;18.10;100.00;99069.47;2096416;28;20448;-76
2021/08/15 04:20:06;;;;;;;49.40;37.87;;;;;;;18.12;100.00;99069.13;2096343;28;20460;-76
2021/08/15 04:21:07;;;;;;;43.23;38.77;;;;;;;18.17;100.00;99074.28;2096037;28;20460;-78
2021/08/15 04:22:08;;;;;;;42.23;37.93;;;;;;;18.23;100.00;99059.38;2096933;28;20460;-76
2021/08/15 04:23:10;;;;;;;43.00;38.43;;;;;;;18.35;100.00;99062.81;2096023;28;20970;-76
2021/08/15 04:24:10;;;;;;;43.97;39.17;;;;;;;18.37;100.00;99062.44;2087937;28;20227;-76
2021/08/15 04:25:12;;;;;;;46.20;37.57;;;;;;;18.43;100.00;99060.28;2096142;28;20499;-76
2021/08/15 04:26:13;;;;;;;41.80;36.77;;;;;;;18.43;100.00;99057.59;2096163;28;20249;-76
2021/08/15 04:27:14;;;;;;;42.00;37.50;;;;;;;18.46;100.00;99062.28;2087969;28;20456;-76
2021/08/15 04:28:15;;;;;;;44.23;35.87;;;;;;;18.54;100.00;99066.72;2080514;28;20223;-76
2021/08/15 04:29:17;;;;;;;44.70;37.33;;;;;;;18.58;100.00;99064.88;2088041;28;20442;-76
2021/08/15 04:30:17;;;;;;;42.77;36.07;;;;;;;18.67;100.00;99056.63;2087586;28;20653;-76
2021/08/15 04:31:19;;;;;;;40.63;36.23;;;;;;;18.68;100.00;99058.19;2087904;28;20537;-76
2021/08/15 04:32:20;;;;;;;40.50;36.27;;;;;;;18.77;100.00;99056.13;2087990;28;20219;-76
2021/08/15 04:33:24;;;;;;;39.90;35.40;;;;;;;18.89;100.00;99058.72;2087865;28;20459;-76
2021/08/15 04:34:25;;;;;;;45.13;36.20;;;;;;;18.88;100.00;99047.13;2079768;28;20301;-76
2021/08/15 04:35:26;;;;;;;45.13;36.70;;;;;;;18.87;100.00;99052.88;2087849;28;20503;-76
2021/08/15 04:36:28;;;;;;;45.80;37.60;;;;;;;18.83;100.00;99049.31;2087808;28;20233;-76
2021/08/15 04:37:29;;;;;;;41.77;37.23;;;;;;;18.74;100.00;99046.78;2079614;28;20500;-76
2021/08/15 04:38:31;;;;;;;43.13;37.30;;;;;;;18.69;100.00;99051.69;2079556;28;20992;-77
2021/08/15 04:39:33;;;;;;;42.27;37.43;;;;;;;18.61;100.00;99056.88;2079758;28;20494;-77